createdAt,value
2022-10-29T00:00:31.529Z,16.70
2022-10-29T00:01:31.286Z,16.65
2022-10-29T00:02:31.359Z,16.65
2022-10-29T00:03:31.335Z,16.65
2022-10-29T00:04:31.235Z,16.60
2022-10-29T00:05:31.781Z,16.59
2022-10-29T00:06:31.237Z,16.58
2022-10-29T00:07:31.442Z,16.56
2022-10-29T00:08:31.199Z,16.56
2022-10-29T00:09:31.156Z,16.55
2022-10-29T00:10:31.138Z,16.53
2022-10-29T00:11:31.123Z,16.53
2022-10-29T00:12:31.115Z,16.55
2022-10-29T00:13:31.100Z,16.56
2022-10-29T00:14:31.403Z,16.56
2022-10-29T00:15:31.077Z,16.56
2022-10-29T00:16:31.088Z,16.56
2022-10-29T00:17:31.059Z,16.55
2022-10-29T00:18:31.057Z,16.55
2022-10-29T00:19:31.035Z,16.53
2022-10-29T00:20:31.097Z,16.52
2022-10-29T00:21:31.318Z,16.49
2022-10-29T00:22:31.006Z,16.45
2022-10-29T00:23:30.996Z,16.48
2022-10-29T00:24:30.995Z,16.48
2022-10-29T00:25:30.969Z,16.45
2022-10-29T00:26:30.997Z,16.44
2022-10-29T00:27:30.988Z,16.44
2022-10-29T00:28:31.246Z,16.41
2022-10-29T00:29:30.932Z,16.41
2022-10-29T00:30:30.933Z,16.42
2022-10-29T00:31:31.020Z,16.41
2022-10-29T00:32:30.945Z,16.40
2022-10-29T00:33:30.895Z,16.40
2022-10-29T00:34:30.882Z,16.38
2022-10-29T00:35:31.152Z,16.37
2022-10-29T00:36:30.860Z,16.37
2022-10-29T00:37:30.886Z,16.37
2022-10-29T00:38:30.867Z,16.35
2022-10-29T00:39:30.841Z,16.34
2022-10-29T00:40:30.808Z,16.34
2022-10-29T00:41:30.807Z,16.34
2022-10-29T00:42:31.077Z,16.30
2022-10-29T00:43:30.785Z,16.33
2022-10-29T00:44:30.826Z,16.30
2022-10-29T00:45:30.777Z,16.31
2022-10-29T00:46:30.856Z,16.31
2022-10-29T00:47:30.751Z,16.31
2022-10-29T00:48:30.725Z,16.31
2022-10-29T00:49:31.054Z,16.30
2022-10-29T00:50:30.786Z,16.27
2022-10-29T00:51:30.703Z,16.27
2022-10-29T00:52:30.688Z,16.26
2022-10-29T00:53:30.720Z,16.25
2022-10-29T00:54:30.745Z,16.26
2022-10-29T00:55:30.660Z,16.23
2022-10-29T00:56:30.958Z,16.20
2022-10-29T00:57:30.658Z,16.22
2022-10-29T00:58:30.627Z,16.22
2022-10-29T00:59:30.631Z,16.20
2022-10-29T01:00:30.626Z,16.20
2022-10-29T01:01:30.721Z,16.18
2022-10-29T01:02:30.821Z,16.20
2022-10-29T01:03:30.588Z,16.18
2022-10-29T01:04:30.573Z,16.16
2022-10-29T01:05:30.569Z,16.16
2022-10-29T01:06:30.555Z,16.16
2022-10-29T01:07:30.560Z,16.16
2022-10-29T01:08:30.890Z,16.15
2022-10-29T01:09:30.518Z,16.14
2022-10-29T01:10:30.504Z,16.12
2022-10-29T01:11:30.503Z,16.12
2022-10-29T01:12:30.581Z,16.12
2022-10-29T01:13:30.484Z,16.12
2022-10-29T01:14:30.506Z,16.14
2022-10-29T01:15:30.462Z,16.14
2022-10-29T01:16:30.438Z,16.14
2022-10-29T01:17:30.467Z,16.12
2022-10-29T01:18:30.539Z,16.11
2022-10-29T01:19:30.454Z,16.07
2022-10-29T01:20:30.714Z,16.07
2022-10-29T01:21:30.438Z,16.04
2022-10-29T01:22:30.408Z,16.04
2022-10-29T01:23:30.370Z,16.03
2022-10-29T01:24:30.373Z,16.00
2022-10-29T01:25:30.350Z,15.99
2022-10-29T01:26:30.364Z,15.97
2022-10-29T01:27:30.622Z,15.96
2022-10-29T01:29:30.332Z,15.96
2022-10-29T01:30:30.309Z,15.96
2022-10-29T01:31:30.296Z,15.97
2022-10-29T01:32:30.313Z,15.97
2022-10-29T01:33:30.274Z,15.97
2022-10-29T01:34:30.552Z,15.97
2022-10-29T01:35:30.258Z,15.97
2022-10-29T01:36:30.234Z,15.99
2022-10-29T01:37:30.244Z,16.01
2022-10-29T01:38:30.270Z,16.00
2022-10-29T01:39:30.212Z,16.01
2022-10-29T01:40:30.187Z,15.99
2022-10-29T01:41:30.487Z,16.00
2022-10-29T01:42:30.170Z,15.99
2022-10-29T01:43:30.172Z,15.97
2022-10-29T01:44:30.182Z,15.97
2022-10-29T01:45:30.144Z,15.96
2022-10-29T01:46:30.129Z,15.94
2022-10-29T01:47:30.129Z,15.92
2022-10-29T01:48:33.073Z,15.89
2022-10-29T01:49:30.109Z,15.88
2022-10-29T01:50:30.120Z,15.86
2022-10-29T01:51:30.084Z,15.86
2022-10-29T01:52:30.067Z,15.85
2022-10-29T01:53:30.052Z,15.86
2022-10-29T01:54:30.050Z,15.86
2022-10-29T01:55:30.318Z,15.85
2022-10-29T01:56:30.105Z,15.85
2022-10-29T01:57:30.017Z,15.85
2022-10-29T01:58:30.008Z,15.86
2022-10-29T01:59:36.381Z,15.84
2022-10-29T02:00:30.113Z,15.86
2022-10-29T02:01:30.135Z,15.86
2022-10-29T02:02:30.277Z,15.86
2022-10-29T02:03:29.972Z,15.88
2022-10-29T02:04:29.948Z,15.88
2022-10-29T02:05:29.940Z,15.86
2022-10-29T02:06:29.927Z,15.88
2022-10-29T02:07:29.940Z,15.89
2022-10-29T02:08:29.954Z,15.89
2022-10-29T02:09:30.213Z,15.89
2022-10-29T02:10:29.890Z,15.88
2022-10-29T02:11:29.876Z,15.89
2022-10-29T02:12:29.856Z,15.88
2022-10-29T02:13:29.876Z,15.88
2022-10-29T02:14:29.874Z,15.84
2022-10-29T02:15:29.830Z,15.84
2022-10-29T02:16:30.104Z,15.82
2022-10-29T02:17:29.829Z,15.81
2022-10-29T02:18:29.807Z,15.81
2022-10-29T02:19:29.846Z,15.78
2022-10-29T02:20:29.825Z,15.76
2022-10-29T02:21:29.767Z,15.75
2022-10-29T02:22:29.768Z,15.70
2022-10-29T02:23:30.029Z,15.70
2022-10-29T02:24:29.734Z,15.66
2022-10-29T02:25:29.816Z,15.64
2022-10-29T02:26:29.738Z,15.61
2022-10-29T02:27:29.707Z,15.60
2022-10-29T02:28:29.693Z,15.60
2022-10-29T02:29:29.681Z,15.61
2022-10-29T02:30:29.951Z,15.60
2022-10-29T02:31:29.672Z,15.60
2022-10-29T02:32:29.681Z,15.57
2022-10-29T02:33:29.652Z,15.60
2022-10-29T02:34:29.631Z,15.60
2022-10-29T02:35:29.624Z,15.60
2022-10-29T02:36:29.606Z,15.63
2022-10-29T02:37:29.880Z,15.61
2022-10-29T02:38:29.637Z,15.61
2022-10-29T02:39:29.595Z,15.61
2022-10-29T02:40:29.563Z,15.63
2022-10-29T02:41:29.565Z,15.64
2022-10-29T02:42:29.551Z,15.64
2022-10-29T02:43:29.546Z,15.66
2022-10-29T02:44:29.852Z,15.66
2022-10-29T02:45:29.520Z,15.66
2022-10-29T02:46:29.506Z,15.66
2022-10-29T02:47:29.530Z,15.66
2022-10-29T02:48:29.480Z,15.67
2022-10-29T02:49:29.474Z,15.68
2022-10-29T02:50:29.487Z,15.66
2022-10-29T02:51:29.452Z,15.66
2022-10-29T02:52:29.440Z,15.67
2022-10-29T02:53:29.715Z,15.66
2022-10-29T02:54:29.437Z,15.67
2022-10-29T02:55:29.409Z,15.68
2022-10-29T02:56:29.438Z,15.68
2022-10-29T02:57:29.387Z,15.66
2022-10-29T02:58:29.388Z,15.68
2022-10-29T02:59:29.652Z,15.68
2022-10-29T03:00:29.352Z,15.70
2022-10-29T03:01:29.452Z,15.72
2022-10-29T03:02:29.493Z,15.70
2022-10-29T03:03:29.326Z,15.70
2022-10-29T03:04:29.318Z,15.74
2022-10-29T03:05:29.317Z,15.72
2022-10-29T03:06:29.575Z,15.72
2022-10-29T03:07:29.306Z,15.70
2022-10-29T03:08:29.318Z,15.70
2022-10-29T03:09:29.269Z,15.70
2022-10-29T03:10:29.248Z,15.70
2022-10-29T03:11:29.248Z,15.70
2022-10-29T03:12:29.229Z,15.68
2022-10-29T03:13:29.558Z,15.72
2022-10-29T03:14:29.248Z,15.68
2022-10-29T03:15:29.206Z,15.68
2022-10-29T03:16:29.183Z,15.67
2022-10-29T03:17:29.183Z,15.68
2022-10-29T03:18:29.171Z,15.66
2022-10-29T03:19:29.163Z,15.66
2022-10-29T03:20:29.475Z,15.64
2022-10-29T03:21:29.140Z,15.66
2022-10-29T03:22:29.124Z,15.63
2022-10-29T03:23:29.117Z,15.64
2022-10-29T03:24:29.113Z,15.61
2022-10-29T03:25:29.116Z,15.63
2022-10-29T03:26:29.112Z,15.61
2022-10-29T03:27:29.369Z,15.59
2022-10-29T03:28:29.059Z,15.59
2022-10-29T03:29:29.073Z,15.59
2022-10-29T03:30:29.052Z,15.57
2022-10-29T03:31:29.039Z,15.59
2022-10-29T03:32:29.073Z,15.59
2022-10-29T03:33:29.013Z,15.59
2022-10-29T03:34:29.313Z,15.57
2022-10-29T03:35:29.017Z,15.57
2022-10-29T03:36:28.994Z,15.56
2022-10-29T03:37:28.973Z,15.56
2022-10-29T03:38:28.975Z,15.56
2022-10-29T03:39:28.963Z,15.52
2022-10-29T03:40:28.941Z,15.56
2022-10-29T03:41:29.237Z,15.52
2022-10-29T03:42:28.970Z,15.52
2022-10-29T03:43:28.932Z,15.52
2022-10-29T03:44:28.932Z,15.52
2022-10-29T03:45:28.896Z,15.51
2022-10-29T03:46:28.872Z,15.51
2022-10-29T03:47:28.887Z,15.49
2022-10-29T03:48:29.165Z,15.48
2022-10-29T03:49:28.865Z,15.48
2022-10-29T03:50:28.889Z,15.45
2022-10-29T03:51:28.830Z,15.43
2022-10-29T03:52:28.859Z,15.45
2022-10-29T03:53:28.818Z,15.43
2022-10-29T03:54:28.807Z,15.42
2022-10-29T03:55:29.143Z,15.41
2022-10-29T03:56:28.799Z,15.39
2022-10-29T03:57:28.765Z,15.39
2022-10-29T03:58:28.765Z,15.39
2022-10-29T03:59:28.758Z,15.38
2022-10-29T04:00:28.723Z,15.38
2022-10-29T04:01:28.863Z,15.38
2022-10-29T04:02:29.179Z,15.38
2022-10-29T04:03:28.693Z,15.36
2022-10-29T04:04:28.699Z,15.36
2022-10-29T04:05:28.685Z,15.35
2022-10-29T04:06:28.669Z,15.35
2022-10-29T04:07:28.668Z,15.35
2022-10-29T04:08:28.663Z,15.36
2022-10-29T04:09:28.921Z,15.35
2022-10-29T04:10:28.623Z,15.33
2022-10-29T04:11:28.614Z,15.33
2022-10-29T04:12:28.589Z,15.31
2022-10-29T04:13:28.614Z,15.31
2022-10-29T04:14:28.715Z,15.33
2022-10-29T04:15:28.560Z,15.30
2022-10-29T04:16:28.838Z,15.30
2022-10-29T04:17:28.539Z,15.28
2022-10-29T04:18:28.523Z,15.30
2022-10-29T04:19:28.529Z,15.28
2022-10-29T04:20:56.390Z,15.27
2022-10-29T04:23:49.427Z,15.30
2022-10-29T04:28:17.983Z,15.30
2022-10-29T04:28:45.921Z,15.28
2022-10-29T04:28:50.881Z,15.26
2022-10-29T04:29:50.859Z,15.24
2022-10-29T04:30:51.128Z,15.24
2022-10-29T04:31:50.874Z,15.21
2022-10-29T04:32:50.831Z,15.20
2022-10-29T04:33:50.830Z,15.19
2022-10-29T04:34:50.810Z,15.17
2022-10-29T04:35:50.793Z,15.15
2022-10-29T04:36:50.801Z,15.13
2022-10-29T04:37:51.081Z,15.12
2022-10-29T04:38:50.799Z,15.11
2022-10-29T04:39:50.757Z,15.09
2022-10-29T04:40:50.745Z,15.08
2022-10-29T04:41:50.727Z,15.06
2022-10-29T04:42:50.732Z,15.05
2022-10-29T04:43:50.732Z,15.03
2022-10-29T04:44:51.014Z,15.03
2022-10-29T04:45:50.694Z,15.01
2022-10-29T04:46:50.686Z,15.01
2022-10-29T04:47:50.665Z,15.01
2022-10-29T04:48:50.817Z,15.01
2022-10-29T04:49:50.675Z,14.99
2022-10-29T04:50:50.663Z,15.01
2022-10-29T04:51:50.920Z,14.99
2022-10-29T04:52:50.625Z,15.01
2022-10-29T04:53:50.614Z,14.99
2022-10-29T04:54:50.643Z,15.01
2022-10-29T04:55:50.622Z,15.02
2022-10-29T04:56:50.572Z,15.02
2022-10-29T04:57:50.579Z,15.02
2022-10-29T04:58:50.831Z,15.02
2022-10-29T04:59:50.542Z,15.02
2022-10-29T05:00:50.597Z,15.02
2022-10-29T05:01:50.551Z,15.03
2022-10-29T05:02:50.507Z,15.03
2022-10-29T05:03:53.073Z,15.06
2022-10-29T05:04:50.491Z,15.05
2022-10-29T05:05:50.786Z,15.03
2022-10-29T05:06:50.479Z,15.03
2022-10-29T05:07:50.511Z,15.01
2022-10-29T05:08:50.450Z,15.01
2022-10-29T05:09:50.435Z,14.99
2022-10-29T05:10:50.438Z,14.99
2022-10-29T05:11:50.429Z,14.98
2022-10-29T05:12:50.713Z,14.94
2022-10-29T05:13:50.432Z,14.93
2022-10-29T05:14:50.380Z,14.93
2022-10-29T05:15:53.002Z,14.90
2022-10-29T05:16:50.371Z,14.87
2022-10-29T05:17:50.367Z,14.84
2022-10-29T05:18:50.344Z,14.80
2022-10-29T05:19:50.381Z,14.75
2022-10-29T05:20:50.319Z,14.74
2022-10-29T05:21:50.318Z,14.71
2022-10-29T05:22:50.298Z,14.72
2022-10-29T05:23:50.306Z,14.72
2022-10-29T05:24:50.292Z,14.78
2022-10-29T05:25:50.618Z,14.86
2022-10-29T05:26:50.279Z,14.87
2022-10-29T05:27:50.281Z,14.88
2022-10-29T05:28:50.238Z,14.90
2022-10-29T05:29:50.257Z,14.90
2022-10-29T05:30:50.242Z,14.87
2022-10-29T05:31:50.253Z,14.84
2022-10-29T05:32:50.211Z,14.81
2022-10-29T05:33:52.537Z,14.80
2022-10-29T05:34:50.199Z,14.80
2022-10-29T05:35:50.173Z,14.80
2022-10-29T05:36:50.159Z,14.78
2022-10-29T05:37:50.466Z,14.75
2022-10-29T05:38:50.143Z,14.72
2022-10-29T05:39:50.135Z,14.71
2022-10-29T05:40:50.116Z,14.69
2022-10-29T05:41:50.126Z,14.67
2022-10-29T05:42:50.116Z,14.62
2022-10-29T05:43:50.677Z,14.60
2022-10-29T05:44:50.077Z,14.57
2022-10-29T05:45:50.072Z,14.54
2022-10-29T05:46:50.059Z,14.53
2022-10-29T05:47:50.041Z,14.50
2022-10-29T05:48:50.033Z,14.47
2022-10-29T05:49:50.070Z,14.43
2022-10-29T05:50:50.287Z,14.39
2022-10-29T05:51:50.004Z,14.37
2022-10-29T05:52:49.997Z,14.34
2022-10-29T05:53:49.989Z,14.29
2022-10-29T05:54:49.980Z,14.27
2022-10-29T05:55:49.994Z,14.25
2022-10-29T05:56:49.946Z,14.20
2022-10-29T05:57:50.225Z,14.17
2022-10-29T05:58:49.925Z,14.17
2022-10-29T05:59:49.917Z,14.19
2022-10-29T06:00:49.905Z,14.20
2022-10-29T06:01:50.082Z,14.20
2022-10-29T06:02:49.934Z,14.24
2022-10-29T06:03:50.031Z,14.21
2022-10-29T06:04:50.165Z,14.24
2022-10-29T06:05:49.869Z,14.24
2022-10-29T06:06:49.968Z,14.24
2022-10-29T06:07:49.913Z,14.24
2022-10-29T06:08:49.852Z,14.24
2022-10-29T06:09:49.817Z,14.21
2022-10-29T06:10:49.829Z,14.20
2022-10-29T06:11:50.078Z,14.20
2022-10-29T06:12:49.783Z,14.21
2022-10-29T06:13:49.801Z,14.21
2022-10-29T06:14:49.775Z,14.21
2022-10-29T06:15:49.755Z,14.21
2022-10-29T06:16:49.739Z,14.27
2022-10-29T06:17:49.725Z,14.25
2022-10-29T06:18:49.999Z,14.25
2022-10-29T06:19:49.758Z,14.25
2022-10-29T06:20:49.700Z,14.24
2022-10-29T06:21:49.705Z,14.28
2022-10-29T06:22:49.691Z,14.24
2022-10-29T06:23:49.692Z,14.21
2022-10-29T06:24:49.676Z,14.21
2022-10-29T06:25:49.695Z,14.19
2022-10-29T06:26:49.651Z,14.14
2022-10-29T06:27:49.638Z,14.14
2022-10-29T06:28:49.615Z,14.12
2022-10-29T06:29:49.638Z,14.10
2022-10-29T06:30:49.601Z,14.09
2022-10-29T06:31:49.925Z,14.07
2022-10-29T06:32:49.578Z,14.06
2022-10-29T06:33:49.567Z,14.04
2022-10-29T06:34:49.576Z,14.04
2022-10-29T06:35:49.555Z,14.04
2022-10-29T06:36:49.536Z,14.02
2022-10-29T06:37:49.569Z,14.06
2022-10-29T06:38:49.817Z,14.06
2022-10-29T06:39:49.526Z,14.06
2022-10-29T06:40:49.506Z,14.09
2022-10-29T06:41:49.479Z,14.07
2022-10-29T06:42:49.488Z,14.09
2022-10-29T06:43:49.499Z,14.07
2022-10-29T06:44:49.453Z,14.07
2022-10-29T06:45:49.747Z,14.07
2022-10-29T06:46:49.423Z,14.06
2022-10-29T06:47:49.414Z,14.07
2022-10-29T06:48:49.417Z,14.09
2022-10-29T06:49:49.440Z,14.07
2022-10-29T06:50:49.405Z,14.09
2022-10-29T06:51:49.381Z,14.12
2022-10-29T06:52:49.640Z,14.14
2022-10-29T06:53:49.363Z,14.16
2022-10-29T06:54:49.394Z,14.12
2022-10-29T06:55:49.388Z,14.12
2022-10-29T06:56:49.331Z,14.12
2022-10-29T06:57:49.336Z,14.10
2022-10-29T06:58:49.299Z,14.10
2022-10-29T06:59:49.604Z,14.09
2022-10-29T07:00:49.493Z,14.10
2022-10-29T07:01:49.438Z,14.12
2022-10-29T07:02:49.273Z,14.13
2022-10-29T07:03:49.309Z,14.13
2022-10-29T07:04:49.283Z,14.16
2022-10-29T07:05:49.249Z,14.17
2022-10-29T07:06:49.547Z,14.17
2022-10-29T07:07:49.256Z,14.20
2022-10-29T07:08:49.233Z,14.21
2022-10-29T07:09:49.248Z,14.25
2022-10-29T07:10:49.181Z,14.27
2022-10-29T07:11:49.184Z,14.28
2022-10-29T07:12:49.160Z,14.29
2022-10-29T07:13:49.483Z,14.32
2022-10-29T07:14:49.139Z,14.35
2022-10-29T07:15:49.142Z,14.38
2022-10-29T07:16:49.129Z,14.44
2022-10-29T07:17:49.111Z,14.49
2022-10-29T07:18:49.088Z,14.54
2022-10-29T07:19:49.164Z,14.61
2022-10-29T07:20:49.387Z,14.68
2022-10-29T07:21:49.079Z,14.84
2022-10-29T07:22:49.052Z,14.99
2022-10-29T07:23:49.047Z,14.98
2022-10-29T07:24:49.041Z,14.98
2022-10-29T07:25:49.076Z,15.02
2022-10-29T07:26:49.012Z,14.99
2022-10-29T07:27:49.164Z,15.02
2022-10-29T07:28:49.000Z,15.01
2022-10-29T07:29:49.002Z,15.01
2022-10-29T07:30:48.988Z,14.99
2022-10-29T07:31:49.020Z,14.98
2022-10-29T07:32:48.960Z,14.99
2022-10-29T07:33:49.235Z,14.95
2022-10-29T07:34:48.930Z,14.95
2022-10-29T07:35:48.948Z,14.95
2022-10-29T07:36:48.918Z,14.94
2022-10-29T07:37:48.962Z,14.94
2022-10-29T07:38:48.884Z,14.93
2022-10-29T07:39:48.907Z,14.95
2022-10-29T07:40:48.904Z,14.94
2022-10-29T07:41:48.903Z,14.94
2022-10-29T07:42:48.854Z,14.98
2022-10-29T07:43:48.896Z,14.98
2022-10-29T07:44:48.845Z,14.99
2022-10-29T07:45:48.837Z,15.02
2022-10-29T07:46:49.125Z,15.06
2022-10-29T07:47:48.819Z,15.08
2022-10-29T07:48:48.811Z,15.11
2022-10-29T07:49:48.823Z,15.17
2022-10-29T07:50:48.773Z,15.19
2022-10-29T07:51:48.764Z,15.23
2022-10-29T07:52:48.796Z,15.24
2022-10-29T07:53:48.765Z,15.28
2022-10-29T07:54:48.738Z,15.30
2022-10-29T07:55:48.759Z,15.31
2022-10-29T07:56:48.717Z,15.33
2022-10-29T07:57:48.702Z,15.36
2022-10-29T07:58:48.685Z,15.41
2022-10-29T07:59:48.675Z,15.45
2022-10-29T08:00:48.753Z,15.48
2022-10-29T08:01:48.878Z,15.52
2022-10-29T08:02:48.651Z,15.52
2022-10-29T08:03:48.638Z,15.54
2022-10-29T08:04:48.627Z,15.57
2022-10-29T08:05:53.725Z,15.60
2022-10-29T08:06:48.616Z,15.61
2022-10-29T08:07:48.628Z,15.63
2022-10-29T08:08:48.578Z,15.61
2022-10-29T08:09:48.584Z,15.64
2022-10-29T08:10:48.861Z,15.67
2022-10-29T08:11:48.561Z,15.68
2022-10-29T08:12:48.557Z,15.70
2022-10-29T08:13:48.560Z,15.72
2022-10-29T08:14:48.518Z,15.74
2022-10-29T08:15:48.538Z,15.75
2022-10-29T08:16:48.507Z,15.74
2022-10-29T08:17:48.764Z,15.75
2022-10-29T08:18:48.477Z,15.76
2022-10-29T08:19:48.518Z,15.81
2022-10-29T08:20:48.478Z,15.82
2022-10-29T08:21:48.493Z,15.85
2022-10-29T08:22:48.444Z,15.85
2022-10-29T08:23:48.422Z,15.86
2022-10-29T08:24:48.713Z,15.89
2022-10-29T08:25:48.446Z,15.92
2022-10-29T08:26:48.403Z,15.96
2022-10-29T08:27:48.448Z,15.96
2022-10-29T08:28:48.481Z,16.00
2022-10-29T08:29:48.423Z,16.01
2022-10-29T08:30:48.683Z,16.03
2022-10-29T08:31:48.688Z,16.07
2022-10-29T08:32:48.340Z,16.14
2022-10-29T08:33:48.334Z,16.14
2022-10-29T08:34:48.385Z,16.18
2022-10-29T08:35:48.316Z,16.18
2022-10-29T08:36:48.287Z,16.20
2022-10-29T08:37:48.331Z,16.23
2022-10-29T08:38:48.584Z,16.26
2022-10-29T08:39:48.313Z,16.31
2022-10-29T08:40:48.253Z,16.33
2022-10-29T08:41:48.263Z,16.35
2022-10-29T08:42:48.234Z,16.40
2022-10-29T08:43:48.379Z,16.42
2022-10-29T08:44:48.213Z,16.48
2022-10-29T08:45:48.499Z,16.50
2022-10-29T08:46:48.892Z,16.53
2022-10-29T08:47:48.188Z,16.59
2022-10-29T08:48:48.170Z,16.75
2022-10-29T08:49:48.174Z,16.89
2022-10-29T08:50:48.145Z,16.93
2022-10-29T08:51:48.137Z,17.00
2022-10-29T08:52:58.739Z,17.23
2022-10-29T08:53:58.946Z,17.73
2022-10-29T08:54:48.169Z,18.17
2022-10-29T08:55:48.122Z,18.44
2022-10-29T08:56:48.173Z,18.72
2022-10-29T08:57:48.155Z,18.74
2022-10-29T08:58:48.060Z,18.79
2022-10-29T08:59:48.349Z,18.67
2022-10-29T09:00:48.143Z,18.42
2022-10-29T09:01:48.335Z,18.15
2022-10-29T09:02:48.055Z,17.94
2022-10-29T09:03:48.028Z,17.94
2022-10-29T09:04:48.022Z,18.24
2022-10-29T09:05:48.026Z,18.79
2022-10-29T09:06:48.305Z,19.14
2022-10-29T09:07:47.993Z,19.48
2022-10-29T09:08:47.971Z,19.60
2022-10-29T09:09:47.967Z,19.58
2022-10-29T09:10:48.020Z,19.58
2022-10-29T09:11:47.936Z,19.51
2022-10-29T09:12:47.930Z,19.40
2022-10-29T09:13:48.223Z,19.38
2022-10-29T09:14:47.977Z,19.36
2022-10-29T09:15:47.897Z,19.35
2022-10-29T09:16:47.912Z,19.33
2022-10-29T09:17:47.885Z,19.14
2022-10-29T09:18:47.876Z,18.99
2022-10-29T09:19:47.886Z,18.90
2022-10-29T09:20:48.284Z,18.80
2022-10-29T09:21:47.842Z,18.57
2022-10-29T09:22:47.826Z,18.43
2022-10-29T09:23:47.790Z,18.44
2022-10-29T09:24:47.803Z,18.37
2022-10-29T09:25:47.856Z,18.29
2022-10-29T09:26:47.783Z,18.22
2022-10-29T09:27:47.772Z,18.17
2022-10-29T09:28:47.754Z,18.13
2022-10-29T09:29:47.745Z,18.12
2022-10-29T09:30:47.731Z,18.15
2022-10-29T09:31:47.842Z,18.15
2022-10-29T09:32:47.812Z,18.18
2022-10-29T09:33:47.997Z,18.21
2022-10-29T09:34:47.701Z,18.25
2022-10-29T09:35:47.684Z,18.25
2022-10-29T09:36:47.689Z,18.27
2022-10-29T09:37:47.697Z,18.31
2022-10-29T09:38:47.656Z,18.40
2022-10-29T09:39:47.674Z,18.54
2022-10-29T09:40:47.911Z,18.70
2022-10-29T09:41:47.617Z,18.84
2022-10-29T09:42:47.618Z,19.11
2022-10-29T09:43:47.727Z,19.55
2022-10-29T09:44:47.618Z,19.69
2022-10-29T09:45:47.595Z,19.63
2022-10-29T09:46:47.573Z,19.78
2022-10-29T09:47:47.862Z,20.10
2022-10-29T09:48:47.566Z,20.65
2022-10-29T09:49:47.578Z,21.20
2022-10-29T09:50:47.532Z,21.81
2022-10-29T09:51:47.520Z,22.10
2022-10-29T09:52:47.591Z,22.23
2022-10-29T09:53:47.592Z,22.35
2022-10-29T09:54:47.799Z,22.39
2022-10-29T09:55:47.620Z,22.39
2022-10-29T09:56:51.814Z,22.37
2022-10-29T09:57:47.470Z,22.27
2022-10-29T09:58:47.465Z,22.04
2022-10-29T09:59:47.474Z,21.83
2022-10-29T10:00:47.437Z,21.67
2022-10-29T10:01:47.595Z,21.44
2022-10-29T10:02:47.446Z,21.26
2022-10-29T10:03:47.498Z,21.13
2022-10-29T10:04:47.423Z,21.01
2022-10-29T10:05:47.371Z,20.96
2022-10-29T10:06:47.728Z,20.90
2022-10-29T10:07:47.396Z,20.72
2022-10-29T10:08:47.443Z,20.56
2022-10-29T10:09:47.382Z,20.59
2022-10-29T10:10:47.364Z,21.01
2022-10-29T10:11:47.403Z,21.20
2022-10-29T10:12:47.594Z,21.13
2022-10-29T10:13:47.369Z,21.02
2022-10-29T10:14:47.296Z,21.19
2022-10-29T10:15:47.326Z,21.27
2022-10-29T10:16:47.303Z,21.32
2022-10-29T10:17:47.267Z,21.38
2022-10-29T10:18:47.606Z,21.24
2022-10-29T10:19:47.284Z,21.19
2022-10-29T10:20:47.279Z,21.38
2022-10-29T10:21:47.205Z,21.92
2022-10-29T10:22:47.211Z,22.06
2022-10-29T10:23:47.204Z,22.22
2022-10-29T10:24:47.190Z,22.16
2022-10-29T10:25:47.598Z,22.16
2022-10-29T10:26:47.152Z,22.32
2022-10-29T10:27:47.140Z,22.49
2022-10-29T10:28:47.141Z,22.69
2022-10-29T10:29:47.129Z,22.75
2022-10-29T10:30:47.239Z,22.96
2022-10-29T10:31:47.317Z,23.07
2022-10-29T10:32:47.410Z,23.39
2022-10-29T10:33:47.090Z,23.11
2022-10-29T10:34:47.084Z,23.39
2022-10-29T10:35:47.067Z,23.92
2022-10-29T10:36:47.081Z,24.35
2022-10-29T10:37:47.097Z,24.44
2022-10-29T10:38:47.184Z,24.17
2022-10-29T10:39:47.311Z,23.90
2022-10-29T10:40:47.055Z,23.55
2022-10-29T10:41:47.035Z,23.45
2022-10-29T10:42:47.096Z,23.70
2022-10-29T10:43:47.005Z,23.90
2022-10-29T10:44:47.016Z,23.90
2022-10-29T10:45:46.976Z,24.02
2022-10-29T10:46:46.949Z,23.90
2022-10-29T10:47:46.934Z,23.72
2022-10-29T10:48:46.932Z,23.80
2022-10-29T10:49:46.981Z,23.11
2022-10-29T10:50:46.897Z,22.54
2022-10-29T10:51:46.952Z,22.10
2022-10-29T10:52:47.210Z,21.88
2022-10-29T10:53:46.910Z,21.88
2022-10-29T10:54:46.965Z,21.85
2022-10-29T10:55:46.898Z,21.99
2022-10-29T10:56:46.869Z,22.10
2022-10-29T10:57:46.898Z,22.07
2022-10-29T10:58:46.898Z,21.98
2022-10-29T10:59:47.101Z,22.38
2022-10-29T11:00:46.851Z,22.62
2022-10-29T11:01:47.140Z,23.11
2022-10-29T11:02:46.823Z,23.27
2022-10-29T11:03:46.791Z,23.26
2022-10-29T11:04:46.767Z,23.26
2022-10-29T11:05:46.792Z,23.34
2022-10-29T11:06:47.150Z,23.27
2022-10-29T11:07:46.787Z,23.17
2022-10-29T11:08:46.741Z,23.08
2022-10-29T11:09:47.541Z,22.96
2022-10-29T11:10:46.707Z,22.77
2022-10-29T11:11:46.736Z,22.69
2022-10-29T11:12:46.668Z,22.39
2022-10-29T11:13:46.978Z,22.27
2022-10-29T11:14:47.468Z,22.31
2022-10-29T11:15:46.711Z,22.64
2022-10-29T11:16:46.630Z,22.93
2022-10-29T11:17:50.056Z,23.01
2022-10-29T11:18:46.613Z,23.02
2022-10-29T11:19:46.736Z,23.31
2022-10-29T11:20:46.618Z,23.34
2022-10-29T11:21:46.622Z,23.62
2022-10-29T11:22:46.575Z,23.82
2022-10-29T11:23:46.570Z,24.04
2022-10-29T11:24:46.569Z,23.79
2022-10-29T11:25:46.583Z,23.80
2022-10-29T11:26:46.827Z,23.86
2022-10-29T11:27:46.534Z,23.80
2022-10-29T11:28:46.545Z,23.75
2022-10-29T11:29:49.120Z,23.61
2022-10-29T11:30:46.508Z,23.43
2022-10-29T11:31:46.534Z,23.02
2022-10-29T11:32:46.525Z,22.69
2022-10-29T11:33:46.766Z,22.64
2022-10-29T11:34:46.472Z,22.35
2022-10-29T11:35:46.432Z,22.20
2022-10-29T11:36:46.464Z,22.06
2022-10-29T11:37:46.499Z,22.06
2022-10-29T11:38:46.434Z,21.99
2022-10-29T11:39:46.418Z,21.97
2022-10-29T11:40:46.709Z,21.90
2022-10-29T11:41:46.488Z,21.91
2022-10-29T11:42:46.358Z,21.97
2022-10-29T11:43:46.394Z,21.99
2022-10-29T11:44:46.349Z,21.97
2022-10-29T11:45:46.339Z,21.97
2022-10-29T11:46:46.418Z,21.91
2022-10-29T11:47:46.573Z,21.92
2022-10-29T11:48:46.297Z,21.99
2022-10-29T11:49:46.326Z,22.07
2022-10-29T11:50:46.293Z,22.14
2022-10-29T11:51:46.271Z,22.19
2022-10-29T11:52:46.313Z,22.27
2022-10-29T11:53:46.313Z,22.17
2022-10-29T11:54:46.244Z,22.16
2022-10-29T11:55:46.292Z,22.13
2022-10-29T11:56:46.207Z,22.13
2022-10-29T11:57:46.216Z,22.22
2022-10-29T11:58:46.191Z,22.28
2022-10-29T11:59:46.216Z,22.34
2022-10-29T12:00:46.491Z,22.32
2022-10-29T12:01:46.296Z,22.37
2022-10-29T12:02:46.193Z,22.46
2022-10-29T12:03:46.182Z,22.59
2022-10-29T12:04:46.135Z,22.72
2022-10-29T12:05:46.126Z,23.24
2022-10-29T12:06:46.116Z,23.82
2022-10-29T12:07:46.207Z,24.17
2022-10-29T12:08:46.129Z,24.12
2022-10-29T12:09:46.091Z,23.82
2022-10-29T12:10:46.067Z,23.53
2022-10-29T12:11:46.073Z,23.34
2022-10-29T12:12:46.351Z,23.27
2022-10-29T12:13:46.103Z,23.11
2022-10-29T12:14:46.045Z,22.99
2022-10-29T12:15:46.042Z,23.24
2022-10-29T12:16:46.030Z,23.95
2022-10-29T12:17:46.054Z,24.49
2022-10-29T12:18:45.997Z,24.97
2022-10-29T12:19:46.057Z,25.22
2022-10-29T12:20:46.037Z,25.69
2022-10-29T12:21:45.970Z,25.83
2022-10-29T12:22:45.981Z,25.69
2022-10-29T12:23:45.968Z,25.67
2022-10-29T12:24:45.932Z,25.17
2022-10-29T12:25:45.958Z,25.35
2022-10-29T12:26:45.911Z,25.19
2022-10-29T12:27:45.899Z,25.25
2022-10-29T12:28:45.889Z,25.35
2022-10-29T12:29:45.878Z,25.19
2022-10-29T12:30:45.866Z,25.25
2022-10-29T12:31:45.929Z,25.28
2022-10-29T12:32:45.842Z,25.72
2022-10-29T12:33:45.960Z,26.28
2022-10-29T12:34:45.838Z,26.29
2022-10-29T12:35:45.826Z,26.25
2022-10-29T12:36:46.088Z,26.02
2022-10-29T12:37:45.858Z,25.69
2022-10-29T12:38:45.827Z,25.13
2022-10-29T12:39:45.773Z,24.77
2022-10-29T12:40:45.783Z,24.50
2022-10-29T12:41:45.761Z,24.34
2022-10-29T12:42:45.825Z,24.23
2022-10-29T12:43:45.890Z,24.16
2022-10-29T12:44:45.803Z,24.08
2022-10-29T12:46:06.853Z,24.10
2022-10-29T12:46:45.722Z,24.12
2022-10-29T12:47:45.687Z,24.07
2022-10-29T12:48:45.966Z,24.14
2022-10-29T12:49:45.747Z,24.17
2022-10-29T12:50:45.664Z,24.44
2022-10-29T12:51:45.769Z,24.61
2022-10-29T12:52:45.647Z,24.98
2022-10-29T12:53:45.671Z,25.39
2022-10-29T12:54:45.621Z,25.84
2022-10-29T12:55:45.667Z,26.29
2022-10-29T12:56:49.375Z,26.57
2022-10-29T12:57:45.594Z,26.76